sensor_id;sensor_type;location;lat;lon;timestamp;pressure;altitude;pressure_sealevel;temperature;humidity
65832;BME280;52593;42.648;23.332;2023-04-02T00:07:48;93636.75;;;7.21;63.01
65832;BME280;52593;42.648;23.332;2023-04-02T00:10:54;93647.59;;;7.35;62.47
65832;BME280;52593;42.648;23.332;2023-04-02T00:13:38;93650.44;;;7.33;62.19
65832;BME280;52593;42.648;23.332;2023-04-02T00:16:07;93648.81;;;7.32;62.72
65832;BME280;52593;42.648;23.332;2023-04-02T00:18:40;93651.66;;;7.30;61.92
65832;BME280;52593;42.648;23.332;2023-04-02T00:21:18;93661.91;;;7.34;62.13
65832;BME280;52593;42.648;23.332;2023-04-02T00:23:45;93659.06;;;7.35;61.64
65832;BME280;52593;42.648;23.332;2023-04-02T00:26:35;93631.91;;;7.25;62.29
65832;BME280;52593;42.648;23.332;2023-04-02T00:29:04;93634.47;;;7.33;61.80
65832;BME280;52593;42.648;23.332;2023-04-02T00:31:30;93617.06;;;7.30;61.52
65832;BME280;52593;42.648;23.332;2023-04-02T00:33:57;93631.34;;;7.44;60.73
65832;BME280;52593;42.648;23.332;2023-04-02T00:36:25;93624.41;;;7.50;60.28
65832;BME280;52593;42.648;23.332;2023-04-02T00:38:56;93630.50;;;7.44;60.95
65832;BME280;52593;42.648;23.332;2023-04-02T00:41:25;93628.56;;;7.38;61.14
65832;BME280;52593;42.648;23.332;2023-04-02T00:43:54;93630.63;;;7.36;61.73
65832;BME280;52593;42.648;23.332;2023-04-02T00:46:46;93624.75;;;7.25;62.43
65832;BME280;52593;42.648;23.332;2023-04-02T00:49:20;93629.44;;;7.23;61.51
65832;BME280;52593;42.648;23.332;2023-04-02T00:51:57;93628.75;;;7.36;61.44
65832;BME280;52593;42.648;23.332;2023-04-02T00:54:27;93623.19;;;7.31;61.58
65832;BME280;52593;42.648;23.332;2023-04-02T00:56:56;93627.97;;;7.21;62.77
65832;BME280;52593;42.648;23.332;2023-04-02T00:59:35;93629.06;;;7.11;63.80
65832;BME280;52593;42.648;23.332;2023-04-02T01:05:00;93609.72;;;7.18;62.33
65832;BME280;52593;42.648;23.332;2023-04-02T01:10:33;93627.38;;;7.40;61.06
65832;BME280;52593;42.648;23.332;2023-04-02T01:15:39;93619.63;;;7.24;62.04
65832;BME280;52593;42.648;23.332;2023-04-02T01:26:42;93642.00;;;7.29;61.78
65832;BME280;52593;42.648;23.332;2023-04-02T01:29:13;93643.28;;;7.34;60.68
65832;BME280;52593;42.648;23.332;2023-04-02T01:31:40;93638.16;;;7.32;60.94
65832;BME280;52593;42.648;23.332;2023-04-02T01:34:11;93654.19;;;7.39;60.69
65832;BME280;52593;42.648;23.332;2023-04-02T01:41:55;93649.22;;;7.50;59.81
65832;BME280;52593;42.648;23.332;2023-04-02T01:44:33;93632.47;;;7.35;60.60
65832;BME280;52593;42.648;23.332;2023-04-02T01:47:02;93639.84;;;7.55;60.22
65832;BME280;52593;42.648;23.332;2023-04-02T01:49:30;93641.78;;;7.46;60.48
65832;BME280;52593;42.648;23.332;2023-04-02T01:51:56;93623.97;;;7.46;60.09
65832;BME280;52593;42.648;23.332;2023-04-02T01:54:22;93630.78;;;7.49;60.11
65832;BME280;52593;42.648;23.332;2023-04-02T01:56:49;93633.25;;;7.50;60.38
65832;BME280;52593;42.648;23.332;2023-04-02T01:59:18;93636.91;;;7.49;60.64
65832;BME280;52593;42.648;23.332;2023-04-02T02:02:02;93640.19;;;7.00;66.30
65832;BME280;52593;42.648;23.332;2023-04-02T02:04:28;93638.16;;;6.57;68.12
65832;BME280;52593;42.648;23.332;2023-04-02T02:06:57;93636.63;;;6.25;70.14
65832;BME280;52593;42.648;23.332;2023-04-02T02:09:27;93645.50;;;6.17;70.55
65832;BME280;52593;42.648;23.332;2023-04-02T02:11:56;93649.63;;;5.97;72.04
65832;BME280;52593;42.648;23.332;2023-04-02T02:14:27;93650.13;;;5.92;72.73
65832;BME280;52593;42.648;23.332;2023-04-02T02:16:55;93642.34;;;5.90;73.05
65832;BME280;52593;42.648;23.332;2023-04-02T02:19:31;93635.53;;;5.88;73.12
65832;BME280;52593;42.648;23.332;2023-04-02T02:24:32;93650.47;;;5.97;71.75
65832;BME280;52593;42.648;23.332;2023-04-02T02:29:27;93658.53;;;6.04;71.53
65832;BME280;52593;42.648;23.332;2023-04-02T02:31:56;93641.31;;;6.00;71.61
65832;BME280;52593;42.648;23.332;2023-04-02T02:34:30;93647.00;;;5.88;72.16
65832;BME280;52593;42.648;23.332;2023-04-02T02:37:03;93648.28;;;6.01;72.78
65832;BME280;52593;42.648;23.332;2023-04-02T02:39:38;93633.41;;;5.83;73.24
65832;BME280;52593;42.648;23.332;2023-04-02T02:42:15;93642.78;;;5.71;74.65
65832;BME280;52593;42.648;23.332;2023-04-02T02:44:47;93645.78;;;5.76;74.87
65832;BME280;52593;42.648;23.332;2023-04-02T02:47:17;93641.63;;;5.74;75.22
65832;BME280;52593;42.648;23.332;2023-04-02T02:49:46;93640.63;;;5.75;75.92
65832;BME280;52593;42.648;23.332;2023-04-02T02:52:35;93631.53;;;5.69;75.97
65832;BME280;52593;42.648;23.332;2023-04-02T02:55:13;93647.94;;;5.72;76.09
65832;BME280;52593;42.648;23.332;2023-04-02T02:57:50;93649.94;;;5.70;75.45
65832;BME280;52593;42.648;23.332;2023-04-02T03:00:17;93642.69;;;5.64;76.77
65832;BME280;52593;42.648;23.332;2023-04-02T03:02:44;93647.91;;;5.49;77.88
65832;BME280;52593;42.648;23.332;2023-04-02T03:05:19;93650.22;;;5.52;78.22
65832;BME280;52593;42.648;23.332;2023-04-02T03:07:46;93634.66;;;5.49;78.77
65832;BME280;52593;42.648;23.332;2023-04-02T03:12:53;93647.44;;;5.46;78.85
65832;BME280;52593;42.648;23.332;2023-04-02T03:17:57;93653.09;;;5.43;79.58
65832;BME280;52593;42.648;23.332;2023-04-02T03:20:39;93656.75;;;5.42;78.65
65832;BME280;52593;42.648;23.332;2023-04-02T03:23:11;93665.38;;;5.44;78.93
65832;BME280;52593;42.648;23.332;2023-04-02T03:26:00;93669.94;;;5.27;80.53
65832;BME280;52593;42.648;23.332;2023-04-02T03:28:32;93664.19;;;5.07;81.58
65832;BME280;52593;42.648;23.332;2023-04-02T03:31:09;93673.88;;;4.83;82.99
65832;BME280;52593;42.648;23.332;2023-04-02T03:33:41;93666.97;;;4.74;84.14
65832;BME280;52593;42.648;23.332;2023-04-02T03:36:34;93672.59;;;4.71;84.68
65832;BME280;52593;42.648;23.332;2023-04-02T03:39:19;93678.22;;;4.76;84.53
65832;BME280;52593;42.648;23.332;2023-04-02T03:41:51;93681.53;;;4.78;84.67
65832;BME280;52593;42.648;23.332;2023-04-02T03:44:30;93675.22;;;4.87;83.74
65832;BME280;52593;42.648;23.332;2023-04-02T03:47:15;93691.13;;;4.79;83.73
65832;BME280;52593;42.648;23.332;2023-04-02T03:49:48;93672.13;;;4.59;84.63
65832;BME280;52593;42.648;23.332;2023-04-02T03:52:28;93668.47;;;4.60;85.50
65832;BME280;52593;42.648;23.332;2023-04-02T03:54:59;93670.97;;;4.61;85.50
65832;BME280;52593;42.648;23.332;2023-04-02T03:57:33;93662.53;;;4.50;85.36
65832;BME280;52593;42.648;23.332;2023-04-02T04:00:07;93669.16;;;4.54;85.43
65832;BME280;52593;42.648;23.332;2023-04-02T04:02:44;93666.69;;;4.52;85.14
65832;BME280;52593;42.648;23.332;2023-04-02T04:05:34;93658.72;;;4.52;85.49
65832;BME280;52593;42.648;23.332;2023-04-02T04:08:06;93672.47;;;4.64;85.33
65832;BME280;52593;42.648;23.332;2023-04-02T04:10:36;93682.03;;;4.73;84.88
65832;BME280;52593;42.648;23.332;2023-04-02T04:13:08;93666.84;;;4.51;84.96
65832;BME280;52593;42.648;23.332;2023-04-02T04:15:46;93676.59;;;4.58;84.78
65832;BME280;52593;42.648;23.332;2023-04-02T04:18:22;93677.75;;;4.56;85.35
65832;BME280;52593;42.648;23.332;2023-04-02T04:21:05;93687.53;;;4.47;85.63
65832;BME280;52593;42.648;23.332;2023-04-02T04:23:37;93686.72;;;4.46;85.81
65832;BME280;52593;42.648;23.332;2023-04-02T04:26:18;93696.31;;;4.47;86.05
65832;BME280;52593;42.648;23.332;2023-04-02T04:28:59;93697.00;;;4.41;85.55
65832;BME280;52593;42.648;23.332;2023-04-02T04:31:37;93704.75;;;4.35;86.22
65832;BME280;52593;42.648;23.332;2023-04-02T04:34:13;93700.63;;;4.32;86.49
65832;BME280;52593;42.648;23.332;2023-04-02T04:36:44;93702.94;;;4.19;87.55
65832;BME280;52593;42.648;23.332;2023-04-02T04:39:22;93712.56;;;4.20;88.12
65832;BME280;52593;42.648;23.332;2023-04-02T04:41:56;93720.66;;;4.26;87.74
65832;BME280;52593;42.648;23.332;2023-04-02T04:44:37;93718.81;;;4.27;87.79
65832;BME280;52593;42.648;23.332;2023-04-02T04:47:12;93723.63;;;4.23;87.98
65832;BME280;52593;42.648;23.332;2023-04-02T04:52:26;93719.34;;;4.31;87.62
65832;BME280;52593;42.648;23.332;2023-04-02T04:54:54;93712.69;;;4.35;87.78
65832;BME280;52593;42.648;23.332;2023-04-02T04:59:55;93723.47;;;4.41;87.89
65832;BME280;52593;42.648;23.332;2023-04-02T05:02:28;93719.97;;;4.41;87.73
65832;BME280;52593;42.648;23.332;2023-04-02T05:04:55;93720.66;;;4.43;87.31
65832;BME280;52593;42.648;23.332;2023-04-02T05:07:25;93717.66;;;4.38;87.09
65832;BME280;52593;42.648;23.332;2023-04-02T05:13:04;93719.31;;;4.72;85.92
65832;BME280;52593;42.648;23.332;2023-04-02T05:15:39;93724.28;;;4.67;85.79
65832;BME280;52593;42.648;23.332;2023-04-02T05:18:18;93716.84;;;4.70;85.88
65832;BME280;52593;42.648;23.332;2023-04-02T05:23:41;93720.94;;;4.89;85.18
65832;BME280;52593;42.648;23.332;2023-04-02T05:26:19;93731.66;;;4.96;84.65
65832;BME280;52593;42.648;23.332;2023-04-02T05:28:59;93724.38;;;4.98;84.60
65832;BME280;52593;42.648;23.332;2023-04-02T05:31:30;93735.78;;;5.15;84.32
65832;BME280;52593;42.648;23.332;2023-04-02T05:34:00;93735.78;;;5.15;83.51
65832;BME280;52593;42.648;23.332;2023-04-02T05:36:28;93737.06;;;5.19;83.46
65832;BME280;52593;42.648;23.332;2023-04-02T05:38:55;93740.19;;;5.31;82.75
65832;BME280;52593;42.648;23.332;2023-04-02T05:41:29;93735.38;;;5.34;82.34
65832;BME280;52593;42.648;23.332;2023-04-02T05:44:05;93732.34;;;5.46;81.29
65832;BME280;52593;42.648;23.332;2023-04-02T05:46:40;93738.00;;;5.43;81.48
65832;BME280;52593;42.648;23.332;2023-04-02T05:49:16;93745.50;;;5.70;80.83
65832;BME280;52593;42.648;23.332;2023-04-02T05:51:47;93724.44;;;5.69;80.77
65832;BME280;52593;42.648;23.332;2023-04-02T05:55:23;93737.09;;;5.98;80.17
65832;BME280;52593;42.648;23.332;2023-04-02T05:57:32;93737.75;;;6.00;79.98
65832;BME280;52593;42.648;23.332;2023-04-02T06:00:04;93733.44;;;5.99;80.15
65832;BME280;52593;42.648;23.332;2023-04-02T06:02:35;93751.97;;;6.07;80.39
65832;BME280;52593;42.648;23.332;2023-04-02T06:05:20;93749.13;;;6.09;80.21
65832;BME280;52593;42.648;23.332;2023-04-02T06:10:33;93756.13;;;6.33;78.61
65832;BME280;52593;42.648;23.332;2023-04-02T06:13:07;93752.22;;;6.44;78.70
65832;BME280;52593;42.648;23.332;2023-04-02T06:15:35;93745.91;;;6.45;77.93
65832;BME280;52593;42.648;23.332;2023-04-02T06:20:29;93755.28;;;6.56;77.26
65832;BME280;52593;42.648;23.332;2023-04-02T06:22:58;93744.66;;;6.56;76.64
65832;BME280;52593;42.648;23.332;2023-04-02T06:25:28;93751.56;;;6.65;76.55
65832;BME280;52593;42.648;23.332;2023-04-02T06:27:57;93747.53;;;6.69;76.87
65832;BME280;52593;42.648;23.332;2023-04-02T06:30:30;93753.06;;;6.83;75.57
65832;BME280;52593;42.648;23.332;2023-04-02T06:32:56;93744.53;;;6.87;75.51
65832;BME280;52593;42.648;23.332;2023-04-02T06:35:22;93737.41;;;7.03;75.17
65832;BME280;52593;42.648;23.332;2023-04-02T06:37:49;93736.41;;;7.04;75.34
65832;BME280;52593;42.648;23.332;2023-04-02T06:42:55;93744.41;;;7.19;72.83
65832;BME280;52593;42.648;23.332;2023-04-02T06:45:28;93749.91;;;7.32;72.66
65832;BME280;52593;42.648;23.332;2023-04-02T06:47:56;93748.06;;;7.32;72.55
65832;BME280;52593;42.648;23.332;2023-04-02T06:50:51;93753.59;;;7.46;72.32
65832;BME280;52593;42.648;23.332;2023-04-02T06:53:31;93763.69;;;7.50;71.42
65832;BME280;52593;42.648;23.332;2023-04-02T06:56:22;93760.91;;;7.44;72.71
65832;BME280;52593;42.648;23.332;2023-04-02T06:58:49;93762.22;;;7.63;72.55
65832;BME280;52593;42.648;23.332;2023-04-02T07:01:24;93770.84;;;7.65;72.45
65832;BME280;52593;42.648;23.332;2023-04-02T07:03:51;93764.03;;;7.77;70.55
65832;BME280;52593;42.648;23.332;2023-04-02T07:06:19;93760.63;;;7.83;70.28
65832;BME280;52593;42.648;23.332;2023-04-02T07:08:45;93769.59;;;7.97;68.49
65832;BME280;52593;42.648;23.332;2023-04-02T07:11:15;93763.88;;;8.00;69.41
65832;BME280;52593;42.648;23.332;2023-04-02T07:13:42;93755.91;;;8.00;68.70
65832;BME280;52593;42.648;23.332;2023-04-02T07:16:14;93768.66;;;8.05;68.99
65832;BME280;52593;42.648;23.332;2023-04-02T07:18:40;93755.69;;;8.17;68.51
65832;BME280;52593;42.648;23.332;2023-04-02T07:21:06;93767.16;;;8.17;68.80
65832;BME280;52593;42.648;23.332;2023-04-02T07:23:31;93764.19;;;8.27;67.92
65832;BME280;52593;42.648;23.332;2023-04-02T07:25:56;93771.25;;;8.35;67.41
65832;BME280;52593;42.648;23.332;2023-04-02T07:28:22;93778.41;;;8.49;66.96
65832;BME280;52593;42.648;23.332;2023-04-02T07:30:49;93780.44;;;8.47;67.84
65832;BME280;52593;42.648;23.332;2023-04-02T07:33:17;93771.63;;;8.68;66.98
65832;BME280;52593;42.648;23.332;2023-04-02T07:35:43;93775.81;;;9.06;67.11
65832;BME280;52593;42.648;23.332;2023-04-02T07:38:09;93783.28;;;9.17;63.28
65832;BME280;52593;42.648;23.332;2023-04-02T07:40:35;93780.06;;;9.22;62.92
65832;BME280;52593;42.648;23.332;2023-04-02T07:43:00;93786.25;;;9.29;61.51
65832;BME280;52593;42.648;23.332;2023-04-02T07:45:27;93790.69;;;9.43;60.74
65832;BME280;52593;42.648;23.332;2023-04-02T07:47:53;93783.81;;;9.62;59.05
65832;BME280;52593;42.648;23.332;2023-04-02T07:50:18;93784.75;;;9.83;56.29
65832;BME280;52593;42.648;23.332;2023-04-02T07:52:44;93779.44;;;9.90;55.29
65832;BME280;52593;42.648;23.332;2023-04-02T07:55:11;93776.88;;;10.10;54.29
65832;BME280;52593;42.648;23.332;2023-04-02T07:57:55;93780.72;;;10.00;53.68
65832;BME280;52593;42.648;23.332;2023-04-02T08:00:22;93778.34;;;10.19;53.38
65832;BME280;52593;42.648;23.332;2023-04-02T08:02:49;93771.00;;;10.34;52.64
65832;BME280;52593;42.648;23.332;2023-04-02T08:05:15;93771.25;;;10.53;51.50
65832;BME280;52593;42.648;23.332;2023-04-02T08:07:41;93774.19;;;10.58;50.59
65832;BME280;52593;42.648;23.332;2023-04-02T08:10:08;93775.84;;;10.66;51.55
65832;BME280;52593;42.648;23.332;2023-04-02T08:12:34;93777.09;;;11.03;51.37
65832;BME280;52593;42.648;23.332;2023-04-02T08:15:00;93772.97;;;11.14;50.82
65832;BME280;52593;42.648;23.332;2023-04-02T08:17:26;93779.78;;;11.23;50.14
65832;BME280;52593;42.648;23.332;2023-04-02T08:19:56;93783.50;;;11.29;49.90
65832;BME280;52593;42.648;23.332;2023-04-02T08:22:28;93788.03;;;11.29;50.30
65832;BME280;52593;42.648;23.332;2023-04-02T08:24:54;93787.81;;;11.17;50.45
65832;BME280;52593;42.648;23.332;2023-04-02T08:27:25;93782.66;;;11.09;49.70
65832;BME280;52593;42.648;23.332;2023-04-02T08:29:50;93780.41;;;11.26;50.12
65832;BME280;52593;42.648;23.332;2023-04-02T08:32:16;93786.97;;;11.16;49.81
65832;BME280;52593;42.648;23.332;2023-04-02T08:34:43;93785.97;;;11.11;50.66
65832;BME280;52593;42.648;23.332;2023-04-02T08:37:10;93779.78;;;11.03;49.90
65832;BME280;52593;42.648;23.332;2023-04-02T08:39:36;93794.81;;;11.11;49.32
65832;BME280;52593;42.648;23.332;2023-04-02T08:42:06;93791.94;;;11.13;49.64
65832;BME280;52593;42.648;23.332;2023-04-02T08:47:31;93789.69;;;11.36;49.74
65832;BME280;52593;42.648;23.332;2023-04-02T08:50:04;93791.50;;;11.56;48.51
65832;BME280;52593;42.648;23.332;2023-04-02T08:52:37;93788.41;;;11.59;48.67
65832;BME280;52593;42.648;23.332;2023-04-02T08:55:10;93791.91;;;11.59;48.38
65832;BME280;52593;42.648;23.332;2023-04-02T08:57:56;93780.97;;;11.68;48.59
65832;BME280;52593;42.648;23.332;2023-04-02T09:03:07;93772.75;;;11.63;47.67
65832;BME280;52593;42.648;23.332;2023-04-02T09:05:37;93784.88;;;11.72;47.59
65832;BME280;52593;42.648;23.332;2023-04-02T09:08:03;93774.13;;;11.99;46.88
65832;BME280;52593;42.648;23.332;2023-04-02T09:10:54;93779.69;;;12.04;46.46
65832;BME280;52593;42.648;23.332;2023-04-02T09:13:26;93777.44;;;12.01;46.63
65832;BME280;52593;42.648;23.332;2023-04-02T09:16:00;93773.81;;;12.27;46.02
65832;BME280;52593;42.648;23.332;2023-04-02T09:18:29;93764.34;;;12.24;44.39
65832;BME280;52593;42.648;23.332;2023-04-02T09:20:56;93789.59;;;12.48;45.09
65832;BME280;52593;42.648;23.332;2023-04-02T09:23:23;93777.41;;;12.84;44.49
65832;BME280;52593;42.648;23.332;2023-04-02T09:25:51;93773.00;;;12.97;43.67
65832;BME280;52593;42.648;23.332;2023-04-02T09:28:18;93769.84;;;13.07;43.70
65832;BME280;52593;42.648;23.332;2023-04-02T09:31:00;93770.84;;;12.80;43.79
65832;BME280;52593;42.648;23.332;2023-04-02T09:36:37;93764.06;;;13.35;42.16
65832;BME280;52593;42.648;23.332;2023-04-02T09:39:16;93770.25;;;13.61;41.12
65832;BME280;52593;42.648;23.332;2023-04-02T09:41:41;93769.56;;;13.47;42.31
65832;BME280;52593;42.648;23.332;2023-04-02T09:46:58;93754.94;;;13.61;41.44
65832;BME280;52593;42.648;23.332;2023-04-02T09:49:30;93757.41;;;13.81;40.94
65832;BME280;52593;42.648;23.332;2023-04-02T09:52:21;93759.81;;;13.71;41.63
65832;BME280;52593;42.648;23.332;2023-04-02T09:57:41;93760.34;;;13.36;41.95
65832;BME280;52593;42.648;23.332;2023-04-02T10:00:14;93760.28;;;12.85;42.06
65832;BME280;52593;42.648;23.332;2023-04-02T10:02:44;93763.25;;;13.02;41.44
65832;BME280;52593;42.648;23.332;2023-04-02T10:05:18;93759.22;;;13.18;40.67
65832;BME280;52593;42.648;23.332;2023-04-02T10:07:50;93763.50;;;13.26;40.63
65832;BME280;52593;42.648;23.332;2023-04-02T10:12:44;93757.38;;;13.12;40.72
65832;BME280;52593;42.648;23.332;2023-04-02T10:15:17;93754.69;;;12.87;40.15
65832;BME280;52593;42.648;23.332;2023-04-02T10:17:56;93759.13;;;13.00;40.88
65832;BME280;52593;42.648;23.332;2023-04-02T10:20:26;93750.88;;;13.27;40.96
65832;BME280;52593;42.648;23.332;2023-04-02T10:22:53;93745.88;;;13.37;39.59
65832;BME280;52593;42.648;23.332;2023-04-02T10:25:20;93734.41;;;13.67;38.54
65832;BME280;52593;42.648;23.332;2023-04-02T10:28:22;93739.94;;;13.72;40.20
65832;BME280;52593;42.648;23.332;2023-04-02T10:30:56;93738.75;;;14.23;39.30
65832;BME280;52593;42.648;23.332;2023-04-02T10:33:29;93738.44;;;14.50;39.10
65832;BME280;52593;42.648;23.332;2023-04-02T10:36:02;93737.97;;;14.53;38.25
65832;BME280;52593;42.648;23.332;2023-04-02T10:44:08;93735.50;;;15.60;38.43
65832;BME280;52593;42.648;23.332;2023-04-02T10:47:16;93739.53;;;15.93;39.15
65832;BME280;52593;42.648;23.332;2023-04-02T10:52:21;93737.84;;;15.32;39.80
65832;BME280;52593;42.648;23.332;2023-04-02T10:54:49;93732.34;;;14.73;40.88
65832;BME280;52593;42.648;23.332;2023-04-02T11:00:32;93726.66;;;13.96;42.50
65832;BME280;52593;42.648;23.332;2023-04-02T11:05:24;93722.91;;;14.34;41.65
65832;BME280;52593;42.648;23.332;2023-04-02T11:08:45;93723.53;;;13.99;42.10
65832;BME280;52593;42.648;23.332;2023-04-02T11:11:01;93726.81;;;13.82;42.25
65832;BME280;52593;42.648;23.332;2023-04-02T11:13:54;93728.56;;;14.25;40.74
65832;BME280;52593;42.648;23.332;2023-04-02T11:16:23;93722.19;;;14.08;42.23
65832;BME280;52593;42.648;23.332;2023-04-02T11:19:15;93735.09;;;13.99;42.60
65832;BME280;52593;42.648;23.332;2023-04-02T11:21:46;93728.00;;;13.86;42.43
65832;BME280;52593;42.648;23.332;2023-04-02T11:27:10;93716.69;;;14.15;42.59
65832;BME280;52593;42.648;23.332;2023-04-02T11:32:33;93723.81;;;14.58;40.59
65832;BME280;52593;42.648;23.332;2023-04-02T11:35:03;93714.66;;;14.28;40.72
65832;BME280;52593;42.648;23.332;2023-04-02T11:37:42;93720.53;;;14.07;41.77
65832;BME280;52593;42.648;23.332;2023-04-02T11:42:41;93719.19;;;13.98;41.49
65832;BME280;52593;42.648;23.332;2023-04-02T11:50:37;93715.22;;;14.19;40.65
65832;BME280;52593;42.648;23.332;2023-04-02T11:53:50;93714.78;;;14.03;41.01
65832;BME280;52593;42.648;23.332;2023-04-02T11:59:06;93711.75;;;14.49;39.86
65832;BME280;52593;42.648;23.332;2023-04-02T12:04:21;93708.13;;;14.24;40.55
65832;BME280;52593;42.648;23.332;2023-04-02T12:14:48;93703.78;;;14.84;38.70
65832;BME280;52593;42.648;23.332;2023-04-02T12:17:31;93703.56;;;14.97;38.44
65832;BME280;52593;42.648;23.332;2023-04-02T12:20:02;93699.84;;;14.98;38.82
65832;BME280;52593;42.648;23.332;2023-04-02T12:22:35;93704.94;;;14.46;39.68
65832;BME280;52593;42.648;23.332;2023-04-02T12:25:20;93701.31;;;14.52;40.04
65832;BME280;52593;42.648;23.332;2023-04-02T12:27:47;93707.34;;;14.96;39.94
65832;BME280;52593;42.648;23.332;2023-04-02T12:30:21;93701.16;;;14.66;39.39
65832;BME280;52593;42.648;23.332;2023-04-02T12:32:47;93703.44;;;14.92;39.25
65832;BME280;52593;42.648;23.332;2023-04-02T12:35:29;93707.00;;;14.62;39.27
65832;BME280;52593;42.648;23.332;2023-04-02T12:37:56;93696.19;;;14.81;39.79
65832;BME280;52593;42.648;23.332;2023-04-02T12:40:23;93672.31;;;15.20;38.38
65832;BME280;52593;42.648;23.332;2023-04-02T12:42:48;93689.00;;;15.41;37.58
65832;BME280;52593;42.648;23.332;2023-04-02T12:45:31;93691.56;;;15.59;37.71
65832;BME280;52593;42.648;23.332;2023-04-02T12:47:59;93685.34;;;16.23;36.62
65832;BME280;52593;42.648;23.332;2023-04-02T12:50:28;93704.72;;;16.20;36.06
65832;BME280;52593;42.648;23.332;2023-04-02T12:52:54;93685.81;;;15.91;36.11
65832;BME280;52593;42.648;23.332;2023-04-02T12:55:24;93688.53;;;15.44;37.16
65832;BME280;52593;42.648;23.332;2023-04-02T12:57:57;93682.41;;;15.84;36.46
65832;BME280;52593;42.648;23.332;2023-04-02T13:05:37;93663.22;;;17.13;34.45
65832;BME280;52593;42.648;23.332;2023-04-02T13:08:15;93668.22;;;17.21;34.10
65832;BME280;52593;42.648;23.332;2023-04-02T13:10:41;93658.00;;;17.62;33.06
65832;BME280;52593;42.648;23.332;2023-04-02T13:13:14;93652.31;;;17.41;32.96
65832;BME280;52593;42.648;23.332;2023-04-02T13:15:40;93671.53;;;17.62;33.15
65832;BME280;52593;42.648;23.332;2023-04-02T13:18:18;93662.56;;;16.88;34.15
65832;BME280;52593;42.648;23.332;2023-04-02T13:21:01;93670.72;;;16.48;34.01
65832;BME280;52593;42.648;23.332;2023-04-02T13:25:59;93662.53;;;17.39;33.04
65832;BME280;52593;42.648;23.332;2023-04-02T13:28:26;93671.22;;;17.58;32.54
65832;BME280;52593;42.648;23.332;2023-04-02T13:30:52;93660.28;;;17.70;32.04
65832;BME280;52593;42.648;23.332;2023-04-02T13:33:18;93672.09;;;17.64;32.57
65832;BME280;52593;42.648;23.332;2023-04-02T13:35:44;93678.47;;;17.75;33.11
65832;BME280;52593;42.648;23.332;2023-04-02T13:38:10;93678.59;;;17.63;32.15
65832;BME280;52593;42.648;23.332;2023-04-02T13:40:36;93670.41;;;17.97;31.88
65832;BME280;52593;42.648;23.332;2023-04-02T13:43:02;93659.56;;;18.41;30.91
65832;BME280;52593;42.648;23.332;2023-04-02T13:45:33;93653.34;;;18.68;31.14
65832;BME280;52593;42.648;23.332;2023-04-02T13:48:00;93670.28;;;17.70;31.75
65832;BME280;52593;42.648;23.332;2023-04-02T13:50:29;93676.41;;;16.34;34.18
65832;BME280;52593;42.648;23.332;2023-04-02T13:53:04;93667.13;;;16.01;34.62
65832;BME280;52593;42.648;23.332;2023-04-02T13:55:34;93666.94;;;15.56;35.53
65832;BME280;52593;42.648;23.332;2023-04-02T13:58:02;93669.28;;;15.52;34.91
65832;BME280;52593;42.648;23.332;2023-04-02T14:00:28;93667.78;;;16.49;33.76
65832;BME280;52593;42.648;23.332;2023-04-02T14:02:59;93663.00;;;18.09;30.17
65832;BME280;52593;42.648;23.332;2023-04-02T14:08:53;93665.19;;;16.14;33.42
65832;BME280;52593;42.648;23.332;2023-04-02T14:24:52;93677.00;;;14.59;36.13
65832;BME280;52593;42.648;23.332;2023-04-02T14:30:41;93665.16;;;15.49;35.53
65832;BME280;52593;42.648;23.332;2023-04-02T14:33:03;93658.75;;;16.15;33.95
65832;BME280;52593;42.648;23.332;2023-04-02T14:35:35;93665.38;;;16.82;33.02
65832;BME280;52593;42.648;23.332;2023-04-02T14:38:35;93650.53;;;18.30;30.73
65832;BME280;52593;42.648;23.332;2023-04-02T14:41:18;93641.09;;;20.05;27.45
65832;BME280;52593;42.648;23.332;2023-04-02T14:43:53;93646.16;;;18.29;29.53
65832;BME280;52593;42.648;23.332;2023-04-02T14:46:26;93651.81;;;17.10;30.70
65832;BME280;52593;42.648;23.332;2023-04-02T14:48:55;93658.94;;;15.96;32.37
65832;BME280;52593;42.648;23.332;2023-04-02T14:51:35;93665.56;;;15.18;34.17
65832;BME280;52593;42.648;23.332;2023-04-02T14:56:51;93663.59;;;14.40;35.49
65832;BME280;52593;42.648;23.332;2023-04-02T14:59:34;93662.84;;;14.33;36.31
65832;BME280;52593;42.648;23.332;2023-04-02T15:05:17;93664.69;;;14.21;36.67
65832;BME280;52593;42.648;23.332;2023-04-02T15:08:02;93665.78;;;14.01;37.03
65832;BME280;52593;42.648;23.332;2023-04-02T15:10:54;93688.84;;;14.09;36.74
65832;BME280;52593;42.648;23.332;2023-04-02T15:13:26;93687.13;;;13.96;36.59
65832;BME280;52593;42.648;23.332;2023-04-02T15:15:57;93684.53;;;13.89;37.05
65832;BME280;52593;42.648;23.332;2023-04-02T15:18:28;93676.84;;;13.74;37.01
65832;BME280;52593;42.648;23.332;2023-04-02T15:21:13;93693.34;;;13.78;36.65
65832;BME280;52593;42.648;23.332;2023-04-02T15:23:53;93691.72;;;13.77;37.32
65832;BME280;52593;42.648;23.332;2023-04-02T15:31:25;93683.19;;;13.62;37.42
65832;BME280;52593;42.648;23.332;2023-04-02T15:41:40;93688.81;;;13.79;36.75
65832;BME280;52593;42.648;23.332;2023-04-02T15:44:14;93678.84;;;13.79;37.01
65832;BME280;52593;42.648;23.332;2023-04-02T15:47:06;93691.84;;;13.82;37.15
65832;BME280;52593;42.648;23.332;2023-04-02T15:49:40;93681.19;;;13.76;37.13
65832;BME280;52593;42.648;23.332;2023-04-02T15:52:24;93695.13;;;13.66;36.50
65832;BME280;52593;42.648;23.332;2023-04-02T15:55:32;93706.41;;;13.56;36.78
65832;BME280;52593;42.648;23.332;2023-04-02T16:03:39;93705.78;;;13.35;36.72
65832;BME280;52593;42.648;23.332;2023-04-02T16:06:44;93695.72;;;13.24;37.58
65832;BME280;52593;42.648;23.332;2023-04-02T16:09:25;93692.72;;;13.14;36.95
65832;BME280;52593;42.648;23.332;2023-04-02T16:12:11;93713.38;;;13.13;37.30
65832;BME280;52593;42.648;23.332;2023-04-02T16:14:39;93704.78;;;13.05;37.30